Terminal Aerodrome Forecast
Issued by NWS Sterling, VA

Home | Current Version | Previous Version | Text Only | Print | Product List | Glossary On
Versions: 1 2 3 4 5 6 7 8 9 10 11 12 13 14 15 16
000
FTUS41 KLWX 040532
TAFCHO
TAF
KCHO 040532Z 0406/0506 VRB03KT 5SM BR SCT150
     FM040900 VRB03KT 2SM BR SCT150
     FM041200 33004KT 5SM BR BKN080
     FM041400 VRB03KT P6SM BKN080
     FM041800 04004KT P6SM BKN050
     FM042200 03004KT P6SM BKN050=

USA.gov is the U.S. government's official web portal to all federal, state and local government web resources and services.